Terminal Aerodrome Forecast
Issued by NWS

Home | Current Version | Previous Version | Text Only | Print | Product List | Glossary On
Versions: 1 2 3 4 5 6 7 8 9 10 11 12 13 14 15 16 17 18 19 20 21
000
FTUS41 KBGM 261100
TAFITH
TAF
KITH 261128Z 2612/2712 29009KT P6SM OVC030
      TEMPO 2613/2617 SCT030
     FM261700 26009KT P6SM SCT030 SCT150
     FM262100 21007KT P6SM SCT150
      TEMPO 2710/2712 BKN050=

USA.gov is the U.S. government's official web portal to all federal, state and local government web resources and services.